createdAt,value
2019-04-29T00:01:31.084Z,79.74
2019-04-29T00:03:59.749Z,81.16
2019-04-29T00:06:28.428Z,79.94
2019-04-29T00:08:57.184Z,80.00
2019-04-29T00:11:29.083Z,80.27
2019-04-29T00:13:58.307Z,80.17
2019-04-29T00:16:34.349Z,80.42
2019-04-29T00:19:10.200Z,80.24
2019-04-29T00:21:40.454Z,80.14
2019-04-29T00:24:09.064Z,80.28
2019-04-29T00:26:37.799Z,80.83
2019-04-29T00:29:06.430Z,80.44
2019-04-29T00:31:35.158Z,80.72
2019-04-29T00:34:03.765Z,80.56
2019-04-29T00:36:36.720Z,81.08
2019-04-29T00:39:23.282Z,81.40
2019-04-29T00:41:59.282Z,81.43
2019-04-29T00:44:29.697Z,81.30
2019-04-29T00:46:58.319Z,81.50
2019-04-29T00:49:27.324Z,81.45
2019-04-29T00:51:58.928Z,82.08
2019-04-29T00:54:37.873Z,81.65
2019-04-29T00:57:06.475Z,81.73
2019-04-29T00:59:35.086Z,81.62
2019-04-29T01:02:04.206Z,81.36
2019-04-29T01:04:32.768Z,81.33
2019-04-29T01:07:01.311Z,82.29
2019-04-29T01:09:30.967Z,81.79
2019-04-29T01:11:59.590Z,82.86
2019-04-29T01:14:31.134Z,82.42
2019-04-29T01:16:59.693Z,82.60
2019-04-29T01:19:28.319Z,83.43
2019-04-29T01:21:56.931Z,83.97
2019-04-29T01:24:27.900Z,83.58
2019-04-29T01:26:58.158Z,83.47
2019-04-29T01:29:32.300Z,83.68
2019-04-29T01:32:00.914Z,83.59
2019-04-29T01:34:42.841Z,84.05
2019-04-29T01:37:11.454Z,83.94
2019-04-29T01:39:53.784Z,84.49
2019-04-29T01:42:23.976Z,85.20
2019-04-29T01:44:52.542Z,85.97
2019-04-29T01:47:21.091Z,86.43
2019-04-29T01:49:49.654Z,86.20
2019-04-29T01:52:18.263Z,86.55
2019-04-29T01:54:47.222Z,87.29
2019-04-29T01:57:15.893Z,87.28
2019-04-29T01:59:44.502Z,87.14
2019-04-29T02:02:13.215Z,86.80
2019-04-29T02:04:41.825Z,87.48
2019-04-29T02:07:10.442Z,87.22
2019-04-29T02:09:56.364Z,87.30
2019-04-29T02:12:26.833Z,87.55
2019-04-29T02:14:55.742Z,87.74
2019-04-29T02:17:24.459Z,88.71
2019-04-29T02:19:53.467Z,87.98
2019-04-29T02:22:29.457Z,88.01
2019-04-29T02:25:01.274Z,88.13
2019-04-29T02:27:29.852Z,88.54
2019-04-29T02:29:58.481Z,88.21
2019-04-29T02:32:27.189Z,88.77
2019-04-29T02:34:58.793Z,88.52
2019-04-29T02:37:30.499Z,88.74
2019-04-29T02:40:06.147Z,88.90
2019-04-29T02:42:51.487Z,89.35
2019-04-29T02:45:21.686Z,89.05
2019-04-29T02:47:50.244Z,89.10
2019-04-29T02:50:19.581Z,89.49
2019-04-29T02:52:48.585Z,89.85
2019-04-29T02:55:18.919Z,90.08
2019-04-29T02:57:55.330Z,90.11
2019-04-29T03:00:27.764Z,89.66
2019-04-29T03:02:58.098Z,89.47
2019-04-29T03:05:31.607Z,90.60
2019-04-29T03:08:00.651Z,90.63
2019-04-29T03:10:29.260Z,90.30
2019-04-29T03:12:57.878Z,90.56
2019-04-29T03:15:31.063Z,91.12
2019-04-29T03:18:00.007Z,91.38
2019-04-29T03:20:36.500Z,90.59
2019-04-29T03:23:09.611Z,90.98
2019-04-29T03:25:38.499Z,91.14
2019-04-29T03:28:07.155Z,90.85
2019-04-29T03:30:35.764Z,91.34
2019-04-29T03:33:04.798Z,91.04
2019-04-29T03:35:33.350Z,91.47
2019-04-29T03:38:01.929Z,91.88
2019-04-29T03:40:30.486Z,91.92
2019-04-29T03:42:59.043Z,91.50
2019-04-29T03:45:27.609Z,91.52
2019-04-29T03:47:58.029Z,91.59
2019-04-29T03:50:29.655Z,91.81
2019-04-29T03:52:58.371Z,91.86
2019-04-29T03:55:38.947Z,91.41
2019-04-29T03:58:00.665Z,91.48
2019-04-29T04:00:29.425Z,91.47
2019-04-29T04:03:17.814Z,91.71
2019-04-29T04:05:48.061Z,92.23
2019-04-29T04:08:21.491Z,92.48
2019-04-29T04:10:50.114Z,92.63
2019-04-29T04:13:18.725Z,92.46
2019-04-29T04:15:47.273Z,92.03
2019-04-29T04:18:29.465Z,92.17
2019-04-29T04:20:58.386Z,92.64
2019-04-29T04:23:26.959Z,92.50
2019-04-29T04:25:57.669Z,92.34
2019-04-29T04:28:28.539Z,92.34
2019-04-29T04:30:58.713Z,92.36
2019-04-29T04:33:28.795Z,92.22
2019-04-29T04:36:00.357Z,91.88
2019-04-29T04:38:28.937Z,91.87
2019-04-29T04:41:02.218Z,92.20
2019-04-29T04:43:30.786Z,92.69
2019-04-29T04:45:59.343Z,92.69
2019-04-29T04:48:29.578Z,93.00
2019-04-29T04:51:00.862Z,92.87
2019-04-29T04:53:29.477Z,92.83
2019-04-29T04:56:01.763Z,92.55
2019-04-29T04:58:30.760Z,92.38
2019-04-29T05:00:59.333Z,91.83
2019-04-29T05:03:30.011Z,91.84
2019-04-29T05:05:58.619Z,91.88
2019-04-29T05:08:28.708Z,92.32
2019-04-29T05:10:57.925Z,92.48
2019-04-29T05:13:28.388Z,92.92
2019-04-29T05:15:59.191Z,92.91
2019-04-29T05:18:27.767Z,92.83
2019-04-29T05:20:56.599Z,92.75
2019-04-29T05:23:25.198Z,93.01
2019-04-29T05:25:53.759Z,93.01
2019-04-29T05:28:22.419Z,93.24
2019-04-29T05:30:50.978Z,93.29
2019-04-29T05:33:19.637Z,93.25
2019-04-29T05:35:49.884Z,93.24
2019-04-29T05:38:29.563Z,93.13
2019-04-29T05:41:01.462Z,93.04
2019-04-29T05:43:33.456Z,93.20
2019-04-29T05:46:09.839Z,92.90
2019-04-29T05:48:38.458Z,92.72
2019-04-29T05:51:08.705Z,92.84
2019-04-29T05:53:41.823Z,93.26
2019-04-29T05:56:10.440Z,93.13
2019-04-29T05:58:39.601Z,92.71
2019-04-29T06:01:10.047Z,92.71
2019-04-29T06:03:39.839Z,93.41
2019-04-29T06:06:08.491Z,92.99
2019-04-29T06:08:39.260Z,93.08
2019-04-29T06:11:07.455Z,92.94
2019-04-29T06:13:36.066Z,93.21
2019-04-29T06:16:04.690Z,93.48
2019-04-29T06:18:33.379Z,93.71
2019-04-29T06:21:09.097Z,94.13
2019-04-29T06:23:32.673Z,94.09
2019-04-29T06:26:01.270Z,94.42
2019-04-29T06:28:29.899Z,94.40
2019-04-29T06:30:58.907Z,94.39
2019-04-29T06:33:31.038Z,94.79
2019-04-29T06:35:59.632Z,95.02
2019-04-29T06:38:31.016Z,94.73
2019-04-29T06:40:59.934Z,94.20
2019-04-29T06:43:30.352Z,94.20
2019-04-29T06:45:58.824Z,94.41
2019-04-29T06:48:28.954Z,94.15
2019-04-29T06:51:00.747Z,94.47
2019-04-29T06:53:29.301Z,94.35
2019-04-29T06:55:57.858Z,94.47
2019-04-29T06:58:26.499Z,94.44
2019-04-29T07:01:01.147Z,94.08
2019-04-29T07:03:26.639Z,94.14
2019-04-29T07:05:55.240Z,93.89
2019-04-29T07:08:23.796Z,94.20
2019-04-29T07:10:55.952Z,94.22
2019-04-29T07:13:24.452Z,94.20
2019-04-29T07:15:53.340Z,94.20
2019-04-29T07:18:21.937Z,94.58
2019-04-29T07:20:50.652Z,94.50
2019-04-29T07:23:19.205Z,94.46
2019-04-29T07:25:47.787Z,94.34
2019-04-29T07:28:18.486Z,94.64
2019-04-29T07:31:01.101Z,94.65
2019-04-29T07:33:22.078Z,94.76
2019-04-29T07:35:48.291Z,95.01
2019-04-29T07:38:18.009Z,95.60
2019-04-29T07:40:46.633Z,96.56
2019-04-29T07:43:15.188Z,97.06
2019-04-29T07:45:51.841Z,96.84
2019-04-29T07:48:20.453Z,97.30
2019-04-29T07:50:48.982Z,97.33
2019-04-29T07:53:21.867Z,97.53
2019-04-29T07:55:48.030Z,97.45
2019-04-29T07:58:16.639Z,97.68
2019-04-29T08:00:48.752Z,97.88
2019-04-29T08:03:15.602Z,97.81
2019-04-29T08:05:44.226Z,97.76
2019-04-29T08:08:16.796Z,97.84
2019-04-29T08:10:54.067Z,98.08
2019-04-29T08:13:14.750Z,98.15
2019-04-29T08:15:43.656Z,97.90
2019-04-29T08:18:16.258Z,98.08
2019-04-29T08:20:42.961Z,98.33
2019-04-29T08:23:11.614Z,98.36
2019-04-29T08:25:40.243Z,98.02
2019-04-29T08:28:08.863Z,97.82
2019-04-29T08:30:37.483Z,97.63
2019-04-29T08:33:07.489Z,97.60
2019-04-29T08:35:37.074Z,97.37
2019-04-29T08:38:06.721Z,97.15
2019-04-29T08:40:35.435Z,97.00
2019-04-29T08:43:22.374Z,96.53
2019-04-29T08:45:52.825Z,96.27
2019-04-29T08:48:21.435Z,96.71
2019-04-29T08:50:49.996Z,96.99
2019-04-29T08:53:18.977Z,97.04
2019-04-29T08:55:47.997Z,96.62
2019-04-29T08:58:16.608Z,96.70
2019-04-29T09:00:45.634Z,97.01
2019-04-29T09:03:14.282Z,96.86
2019-04-29T09:05:46.224Z,96.39
2019-04-29T09:08:13.948Z,94.70
2019-04-29T09:10:42.543Z,92.68
2019-04-29T09:13:11.100Z,91.36
2019-04-29T09:15:39.761Z,91.93
2019-04-29T09:18:10.819Z,92.16
2019-04-29T09:20:39.037Z,92.68
2019-04-29T09:23:12.377Z,93.05
2019-04-29T09:25:42.637Z,91.67
2019-04-29T09:28:17.952Z,91.24
2019-04-29T09:30:43.656Z,90.58
2019-04-29T09:33:13.110Z,91.54
2019-04-29T09:35:42.531Z,90.91
2019-04-29T09:38:11.224Z,90.32
2019-04-29T09:40:45.668Z,89.85
2019-04-29T09:43:32.919Z,90.18
2019-04-29T09:46:18.760Z,89.95
2019-04-29T09:48:47.453Z,90.30
2019-04-29T09:51:18.105Z,91.38
2019-04-29T09:53:46.638Z,91.26
2019-04-29T09:56:15.223Z,90.62
2019-04-29T09:58:43.784Z,90.63
2019-04-29T10:01:19.119Z,90.33
2019-04-29T10:04:01.413Z,89.60
2019-04-29T10:06:31.618Z,89.92
2019-04-29T10:09:00.222Z,90.26
2019-04-29T10:11:28.944Z,90.73
2019-04-29T10:14:00.116Z,89.26
2019-04-29T10:16:39.477Z,89.83
2019-04-29T10:19:25.190Z,89.22
2019-04-29T10:21:54.206Z,88.86
2019-04-29T10:24:23.033Z,88.33
2019-04-29T10:26:52.175Z,89.24
2019-04-29T10:29:25.608Z,88.50
2019-04-29T10:31:53.284Z,88.35
2019-04-29T10:34:21.854Z,88.39
2019-04-29T10:36:52.304Z,87.68
2019-04-29T10:39:28.700Z,88.43
2019-04-29T10:42:00.392Z,88.38
2019-04-29T10:44:46.554Z,89.61
2019-04-29T10:47:33.176Z,90.64
2019-04-29T10:50:03.763Z,88.94
2019-04-29T10:52:34.493Z,87.62
2019-04-29T10:55:02.827Z,87.55
2019-04-29T10:57:31.438Z,87.47
2019-04-29T11:00:21.727Z,86.71
2019-04-29T11:02:51.188Z,87.46
2019-04-29T11:05:30.254Z,86.80
2019-04-29T11:08:02.625Z,85.86
2019-04-29T11:10:32.893Z,84.94
2019-04-29T11:13:01.543Z,84.73
2019-04-29T11:15:34.980Z,85.27
2019-04-29T11:18:04.578Z,83.77
2019-04-29T11:20:33.575Z,84.13
2019-04-29T11:23:16.453Z,84.38
2019-04-29T11:26:00.563Z,85.71
2019-04-29T11:28:30.172Z,85.72
2019-04-29T11:30:59.242Z,84.61
2019-04-29T11:33:30.988Z,83.88
2019-04-29T11:36:03.833Z,83.63
2019-04-29T11:38:33.007Z,83.93
2019-04-29T11:41:01.938Z,83.84
2019-04-29T11:43:31.186Z,82.50
2019-04-29T11:46:00.029Z,80.60
2019-04-29T11:48:28.689Z,77.99
2019-04-29T11:51:01.816Z,78.80
2019-04-29T11:53:30.392Z,77.22
2019-04-29T11:55:59.136Z,76.58
2019-04-29T11:58:44.760Z,78.84
2019-04-29T12:01:39.273Z,78.14
2019-04-29T12:04:13.960Z,76.54
2019-04-29T12:06:43.173Z,76.65
2019-04-29T12:09:12.196Z,76.49
2019-04-29T12:11:40.804Z,78.30
2019-04-29T12:14:14.301Z,78.33
2019-04-29T12:16:47.252Z,77.28
2019-04-29T12:19:23.134Z,76.61
2019-04-29T12:21:51.848Z,76.73
2019-04-29T12:24:21.161Z,77.62
2019-04-29T12:26:49.882Z,76.80
2019-04-29T12:29:19.649Z,73.81
2019-04-29T12:32:01.981Z,74.19
2019-04-29T12:34:32.229Z,73.49
2019-04-29T12:37:00.952Z,73.28
2019-04-29T12:39:47.908Z,73.02
2019-04-29T12:42:35.768Z,73.03
2019-04-29T12:45:26.830Z,73.35
2019-04-29T12:47:57.602Z,73.10
2019-04-29T12:50:26.488Z,71.91
2019-04-29T12:52:57.014Z,73.37
2019-04-29T12:55:46.073Z,73.45
2019-04-29T12:58:12.764Z,73.35
2019-04-29T13:00:48.042Z,70.88
2019-04-29T13:03:30.975Z,71.67
2019-04-29T13:06:02.643Z,71.38
2019-04-29T13:08:41.739Z,71.69
2019-04-29T13:11:10.451Z,73.09
2019-04-29T13:13:39.163Z,72.36
2019-04-29T13:16:27.657Z,72.31
2019-04-29T13:19:11.576Z,72.32
2019-04-29T13:21:31.327Z,72.01
2019-04-29T13:24:13.394Z,72.45
2019-04-29T13:26:33.297Z,71.53
2019-04-29T13:29:01.605Z,71.35
2019-04-29T13:31:38.418Z,71.92
2019-04-29T13:34:14.565Z,71.41
2019-04-29T13:36:33.236Z,70.20
2019-04-29T13:39:01.888Z,71.24
2019-04-29T13:41:30.495Z,69.49
2019-04-29T13:44:05.639Z,68.63
2019-04-29T13:46:33.069Z,67.12
2019-04-29T13:49:13.461Z,70.06
2019-04-29T13:51:41.135Z,68.09
2019-04-29T13:54:09.767Z,67.62
2019-04-29T13:56:54.803Z,69.10
2019-04-29T13:59:12.422Z,68.50
2019-04-29T14:01:58.359Z,68.56
2019-04-29T14:04:24.264Z,68.85
2019-04-29T14:06:56.640Z,69.24
2019-04-29T14:09:19.030Z,68.70
2019-04-29T14:12:01.094Z,70.53
2019-04-29T14:14:22.740Z,68.25
2019-04-29T14:16:48.780Z,69.02
2019-04-29T14:19:20.449Z,68.63
2019-04-29T14:21:47.771Z,69.98
2019-04-29T14:24:16.325Z,70.39
2019-04-29T14:26:47.832Z,69.53
2019-04-29T14:29:15.716Z,70.11
2019-04-29T14:31:45.979Z,71.53
2019-04-29T14:34:20.493Z,71.05
2019-04-29T14:36:49.245Z,71.47
2019-04-29T14:39:36.183Z,70.92
2019-04-29T14:41:50.907Z,71.18
2019-04-29T14:44:33.342Z,70.76
2019-04-29T14:47:03.704Z,71.89
2019-04-29T14:49:39.738Z,69.39
2019-04-29T14:52:08.169Z,68.85
2019-04-29T14:54:41.876Z,69.55
2019-04-29T14:57:09.212Z,68.31
2019-04-29T14:59:38.239Z,68.49
2019-04-29T15:02:17.146Z,70.66
2019-04-29T15:04:45.373Z,68.50
2019-04-29T15:07:14.359Z,68.15
2019-04-29T15:09:58.040Z,66.42
2019-04-29T15:12:27.992Z,63.50
2019-04-29T15:15:14.142Z,59.93
2019-04-29T15:17:47.203Z,55.11
2019-04-29T15:20:17.644Z,55.67
2019-04-29T15:22:46.698Z,53.81
2019-04-29T15:25:16.741Z,53.56
2019-04-29T15:27:45.967Z,52.97
2019-04-29T15:30:15.395Z,53.20
2019-04-29T15:32:43.969Z,55.83
2019-04-29T15:35:13.038Z,56.85
2019-04-29T15:37:41.647Z,55.49
2019-04-29T15:40:10.593Z,55.30
2019-04-29T15:42:43.255Z,55.18
2019-04-29T15:45:09.911Z,54.45
2019-04-29T15:47:41.572Z,53.78
2019-04-29T15:50:18.226Z,52.89
2019-04-29T15:52:39.484Z,56.96
2019-04-29T15:55:08.542Z,54.51
2019-04-29T15:57:37.137Z,54.75
2019-04-29T16:00:21.463Z,56.63
2019-04-29T16:02:41.499Z,56.61
2019-04-29T16:05:17.192Z,57.40
2019-04-29T16:07:55.793Z,58.56
2019-04-29T16:10:41.562Z,59.46
2019-04-29T16:13:13.933Z,57.87
2019-04-29T16:15:42.558Z,59.42
2019-04-29T16:18:14.745Z,60.67
2019-04-29T16:20:42.443Z,55.96
2019-04-29T16:23:11.042Z,55.37
2019-04-29T16:25:40.826Z,56.01
2019-04-29T16:28:09.861Z,58.11
2019-04-29T16:30:38.565Z,57.60
2019-04-29T16:33:14.086Z,56.06
2019-04-29T16:35:38.045Z,55.61
2019-04-29T16:38:11.769Z,55.56
2019-04-29T16:40:39.479Z,55.95
2019-04-29T16:43:13.318Z,54.23
2019-04-29T16:45:44.160Z,55.29
2019-04-29T16:48:13.908Z,55.66
2019-04-29T16:50:42.923Z,55.95
2019-04-29T16:53:11.560Z,56.43
2019-04-29T16:58:17.714Z,57.81
2019-04-29T17:00:46.555Z,57.54
2019-04-29T17:03:11.593Z,56.55
2019-04-29T17:05:40.222Z,56.08
2019-04-29T17:08:09.326Z,57.47
2019-04-29T17:10:59.373Z,57.36
2019-04-29T17:13:29.541Z,57.60
2019-04-29T17:16:01.652Z,58.61
2019-04-29T17:18:30.364Z,57.07
2019-04-29T17:21:04.617Z,60.53
2019-04-29T17:23:29.458Z,56.45
2019-04-29T17:25:59.632Z,55.63
2019-04-29T17:28:35.130Z,55.09
2019-04-29T17:31:23.976Z,54.06
2019-04-29T17:33:57.440Z,58.49
2019-04-29T17:35:14.349Z,55.46
2019-04-29T17:36:26.392Z,54.12
2019-04-29T17:38:55.881Z,54.37
2019-04-29T17:41:24.539Z,54.46
2019-04-29T17:43:57.625Z,54.01
2019-04-29T17:46:27.837Z,53.32
2019-04-29T17:49:13.148Z,53.53
2019-04-29T17:51:42.200Z,53.32
2019-04-29T17:54:15.875Z,55.28
2019-04-29T17:57:25.070Z,51.93
2019-04-29T17:59:52.660Z,52.13
2019-04-29T18:02:39.407Z,51.30
2019-04-29T18:05:18.660Z,50.91
2019-04-29T18:07:51.885Z,53.01
2019-04-29T18:10:29.517Z,53.44
2019-04-29T18:12:57.115Z,51.59
2019-04-29T18:15:27.365Z,51.10
2019-04-29T18:17:56.290Z,52.69
2019-04-29T18:20:35.817Z,53.53
2019-04-29T18:23:15.830Z,52.44
2019-04-29T18:26:00.582Z,52.78
2019-04-29T18:28:29.303Z,53.84
2019-04-29T18:30:59.869Z,53.68
2019-04-29T18:33:30.400Z,52.15
2019-04-29T18:36:04.247Z,55.48
2019-04-29T18:38:29.186Z,54.91
2019-04-29T18:40:57.813Z,54.64
2019-04-29T18:43:26.837Z,55.05
2019-04-29T18:45:58.803Z,54.58
2019-04-29T18:48:27.965Z,55.80
2019-04-29T18:50:57.108Z,54.81
2019-04-29T18:53:26.564Z,55.99
2019-04-29T18:55:57.017Z,55.69
2019-04-29T18:58:28.059Z,55.65
2019-04-29T19:00:59.445Z,57.30
2019-04-29T19:03:33.159Z,57.13
2019-04-29T19:06:10.264Z,57.60
2019-04-29T19:08:35.809Z,57.72
2019-04-29T19:11:06.863Z,58.00
2019-04-29T19:13:36.248Z,58.01
2019-04-29T19:16:10.320Z,57.44
2019-04-29T19:18:35.628Z,58.54
2019-04-29T19:21:04.253Z,58.52
2019-04-29T19:23:33.055Z,59.21
2019-04-29T19:26:01.675Z,59.18
2019-04-29T19:28:32.405Z,59.62
2019-04-29T19:31:03.224Z,58.78
2019-04-29T19:33:37.625Z,59.29
2019-04-29T19:36:01.440Z,59.78
2019-04-29T19:38:30.055Z,59.38
2019-04-29T19:40:58.680Z,59.36
2019-04-29T19:43:28.953Z,59.32
2019-04-29T19:45:57.767Z,58.51
2019-04-29T19:48:27.246Z,60.02
2019-04-29T19:51:14.603Z,60.86
2019-04-29T19:53:30.154Z,61.61
2019-04-29T19:56:04.092Z,61.57
2019-04-29T19:58:31.625Z,61.39
2019-04-29T20:01:10.851Z,62.81
2019-04-29T20:03:37.926Z,65.06
2019-04-29T20:06:24.831Z,62.81
2019-04-29T20:08:53.896Z,63.63
2019-04-29T20:11:18.670Z,61.62
2019-04-29T20:14:01.302Z,63.41
2019-04-29T20:16:24.978Z,62.66
2019-04-29T20:19:02.521Z,63.25
2019-04-29T20:21:36.276Z,62.46
2019-04-29T20:24:09.651Z,62.22
2019-04-29T20:26:36.061Z,63.33
2019-04-29T20:29:07.305Z,63.44
2019-04-29T20:31:38.852Z,63.44
2019-04-29T20:34:06.506Z,63.70
2019-04-29T20:36:41.742Z,64.59
2019-04-29T20:39:10.988Z,63.42
2019-04-29T20:41:41.970Z,63.50
2019-04-29T20:44:09.449Z,63.06
2019-04-29T20:46:45.517Z,63.53
2019-04-29T20:49:08.810Z,64.32
2019-04-29T20:51:48.980Z,63.89
2019-04-29T20:54:15.943Z,64.33
2019-04-29T20:56:40.082Z,64.04
2019-04-29T20:59:12.524Z,65.57
2019-04-29T21:01:43.206Z,65.41
2019-04-29T21:04:11.283Z,65.12
2019-04-29T21:06:56.558Z,65.44
2019-04-29T21:09:10.572Z,66.19
2019-04-29T21:11:45.620Z,66.26
2019-04-29T21:14:18.494Z,66.71
2019-04-29T21:16:51.717Z,65.94
2019-04-29T21:19:20.326Z,65.51
2019-04-29T21:21:49.041Z,66.16
2019-04-29T21:24:18.758Z,65.75
2019-04-29T21:26:47.605Z,66.38
2019-04-29T21:29:19.466Z,66.51
2019-04-29T21:31:50.584Z,66.48
2019-04-29T21:34:17.772Z,66.19
2019-04-29T21:36:51.179Z,70.21
2019-04-29T21:39:27.377Z,70.07
2019-04-29T21:41:59.981Z,68.12
2019-04-29T21:44:29.184Z,68.54
2019-04-29T21:47:03.779Z,68.55
2019-04-29T21:49:29.823Z,68.01
2019-04-29T21:51:58.528Z,67.96
2019-04-29T21:54:28.684Z,68.57
2019-04-29T21:56:58.755Z,68.45
2019-04-29T21:59:29.292Z,68.88
2019-04-29T22:01:59.409Z,69.48
2019-04-29T22:04:32.856Z,69.93
2019-04-29T22:07:04.854Z,70.71
2019-04-29T22:09:36.149Z,69.89
2019-04-29T22:12:01.127Z,69.53
2019-04-29T22:14:29.748Z,70.48
2019-04-29T22:16:58.741Z,71.90
2019-04-29T22:19:28.892Z,72.22
2019-04-29T22:22:01.666Z,71.03
2019-04-29T22:24:30.692Z,71.77
2019-04-29T22:27:04.031Z,72.15
2019-04-29T22:29:32.007Z,71.69
2019-04-29T22:32:00.307Z,71.73
2019-04-29T22:34:28.884Z,73.64
2019-04-29T22:37:01.269Z,72.27
2019-04-29T22:39:30.195Z,72.46
2019-04-29T22:42:12.747Z,72.41
2019-04-29T22:44:41.705Z,73.39
2019-04-29T22:47:10.378Z,73.01
2019-04-29T22:49:39.000Z,73.37
2019-04-29T22:52:09.031Z,73.99
2019-04-29T22:54:37.920Z,73.78
2019-04-29T22:57:06.790Z,74.05
2019-04-29T22:59:35.502Z,74.01
2019-04-29T23:02:05.777Z,74.20
2019-04-29T23:04:35.141Z,74.50
2019-04-29T23:07:03.786Z,74.62
2019-04-29T23:09:32.355Z,74.73
2019-04-29T23:12:00.960Z,74.96
2019-04-29T23:14:29.618Z,75.36
2019-04-29T23:17:01.213Z,75.52
2019-04-29T23:19:30.165Z,76.35
2019-04-29T23:22:06.628Z,76.35
2019-04-29T23:24:46.652Z,76.04
2019-04-29T23:27:25.910Z,76.31
2019-04-29T23:29:54.566Z,76.59
2019-04-29T23:32:25.254Z,76.59
2019-04-29T23:34:55.033Z,77.27
2019-04-29T23:37:29.065Z,77.27
2019-04-29T23:39:55.749Z,77.34
2019-04-29T23:42:26.187Z,78.08
2019-04-29T23:44:57.079Z,78.76
2019-04-29T23:47:25.811Z,78.76
2019-04-29T23:49:57.680Z,78.29
2019-04-29T23:52:28.613Z,78.39
2019-04-29T23:55:01.599Z,78.86
2019-04-29T23:57:35.854Z,78.87
